createdAt,value
2023-02-01T00:00:29.608Z,2.72
2023-02-01T00:01:01.249Z,2.72
2023-02-01T00:01:33.629Z,2.72
2023-02-01T00:02:05.232Z,2.72
2023-02-01T00:02:37.607Z,2.72
2023-02-01T00:03:00.328Z,2.72
2023-02-01T00:03:22.719Z,2.72
2023-02-01T00:03:57.984Z,2.72
2023-02-01T00:04:29.557Z,2.72
2023-02-01T00:05:01.415Z,2.72
2023-02-01T00:05:33.527Z,2.72
2023-02-01T00:06:05.313Z,2.72
2023-02-01T00:06:34.664Z,2.72
2023-02-01T00:07:06.276Z,2.72
2023-02-01T00:07:41.248Z,2.72
2023-02-01T00:08:04.227Z,2.72
2023-02-01T00:08:26.586Z,2.72
2023-02-01T00:09:01.607Z,2.72
2023-02-01T00:09:33.304Z,2.72
2023-02-01T00:10:05.260Z,2.72
2023-02-01T00:10:34.510Z,2.72
2023-02-01T00:11:06.479Z,2.72
2023-02-01T00:11:41.399Z,2.72
2023-02-01T00:12:05.557Z,2.72
2023-02-01T00:12:26.409Z,2.72
2023-02-01T00:13:01.228Z,2.72
2023-02-01T00:13:33.559Z,2.72
2023-02-01T00:14:05.601Z,2.72
2023-02-01T00:14:37.411Z,2.72
2023-02-01T00:15:00.341Z,2.72
2023-02-01T00:15:22.689Z,2.77
2023-02-01T00:15:58.403Z,2.77
2023-02-01T00:16:29.385Z,2.77
2023-02-01T00:17:01.324Z,2.77
2023-02-01T00:17:33.398Z,2.77
2023-02-01T00:18:05.344Z,2.77
2023-02-01T00:18:37.309Z,2.77
2023-02-01T00:19:00.047Z,2.77
2023-02-01T00:19:22.457Z,2.77
2023-02-01T00:19:57.734Z,2.77
2023-02-01T00:20:29.262Z,2.77
2023-02-01T00:21:01.385Z,2.77
2023-02-01T00:21:33.352Z,2.77
2023-02-01T00:22:05.363Z,2.77
2023-02-01T00:22:37.579Z,2.77
2023-02-01T00:23:00.254Z,2.77
2023-02-01T00:23:22.396Z,2.72
2023-02-01T00:23:57.868Z,2.72
2023-02-01T00:24:29.550Z,2.72
2023-02-01T00:25:03.052Z,2.72
2023-02-01T00:25:33.213Z,2.77
2023-02-01T00:26:05.481Z,2.77
2023-02-01T00:26:37.383Z,2.77
2023-02-01T00:27:00.449Z,2.77
2023-02-01T00:27:23.021Z,2.77
2023-02-01T00:27:57.376Z,2.77
2023-02-01T00:28:29.583Z,2.77
2023-02-01T00:29:06.899Z,2.77
2023-02-01T00:29:29.418Z,2.88
2023-02-01T00:30:06.602Z,2.88
2023-02-01T00:30:37.588Z,2.77
2023-02-01T00:31:00.497Z,2.77
2023-02-01T00:31:23.354Z,2.77
2023-02-01T00:31:57.184Z,2.77
2023-02-01T00:32:30.908Z,2.77
2023-02-01T00:33:01.666Z,2.77
2023-02-01T00:33:34.144Z,2.77
2023-02-01T00:34:05.421Z,2.77
2023-02-01T00:34:35.188Z,2.77
2023-02-01T00:35:06.842Z,2.77
2023-02-01T00:35:43.074Z,2.77
2023-02-01T00:36:05.336Z,2.77
2023-02-01T00:36:27.889Z,2.77
2023-02-01T00:37:01.475Z,2.77
2023-02-01T00:37:33.468Z,2.77
2023-02-01T00:38:05.801Z,2.77
2023-02-01T00:38:37.393Z,2.77
2023-02-01T00:39:00.035Z,2.88
2023-02-01T00:39:23.518Z,2.88
2023-02-01T00:39:57.796Z,2.77
2023-02-01T00:40:29.493Z,2.77
2023-02-01T00:41:01.379Z,2.88
2023-02-01T00:41:33.507Z,2.77
2023-02-01T00:42:05.343Z,2.88
2023-02-01T00:42:34.694Z,2.88
2023-02-01T00:43:06.765Z,2.88
2023-02-01T00:43:42.972Z,2.88
2023-02-01T00:44:05.552Z,2.88
2023-02-01T00:44:28.439Z,2.88
2023-02-01T00:45:02.122Z,2.88
2023-02-01T00:45:34.314Z,2.88
2023-02-01T00:46:05.611Z,2.88
2023-02-01T00:46:35.208Z,2.77
2023-02-01T00:47:08.204Z,2.77
2023-02-01T00:47:41.913Z,2.77
2023-02-01T00:48:04.612Z,2.77
2023-02-01T00:48:27.651Z,2.77
2023-02-01T00:49:01.285Z,2.77
2023-02-01T00:49:33.438Z,2.77
2023-02-01T00:50:05.654Z,2.77
2023-02-01T00:50:37.668Z,2.77
2023-02-01T00:51:00.328Z,2.77
2023-02-01T00:51:23.482Z,2.77
2023-02-01T00:51:58.286Z,2.77
2023-02-01T00:52:29.420Z,2.77
2023-02-01T00:53:02.707Z,2.77
2023-02-01T00:53:33.884Z,2.77
2023-02-01T00:54:07.529Z,2.77
2023-02-01T00:54:37.672Z,2.77
2023-02-01T00:55:00.209Z,2.77
2023-02-01T00:55:24.003Z,2.77
2023-02-01T00:55:57.561Z,2.77
2023-02-01T00:56:29.453Z,2.77
2023-02-01T00:57:01.342Z,2.77
2023-02-01T00:57:33.519Z,2.77
2023-02-01T00:58:05.739Z,2.77
2023-02-01T00:58:37.233Z,2.77
2023-02-01T00:59:07.820Z,2.77
2023-02-01T00:59:44.703Z,2.88
2023-02-01T01:00:13.837Z,2.88
2023-02-01T01:00:46.072Z,2.88
2023-02-01T01:01:08.558Z,2.88
2023-02-01T01:01:32.897Z,2.88
2023-02-01T01:02:05.473Z,2.88
2023-02-01T01:02:38.018Z,2.88
2023-02-01T01:03:00.668Z,2.88
2023-02-01T01:03:25.224Z,2.88
2023-02-01T01:03:58.585Z,2.88
2023-02-01T01:04:29.917Z,2.88
2023-02-01T01:05:01.353Z,2.88
2023-02-01T01:05:33.609Z,2.88
2023-02-01T01:06:05.596Z,2.88
2023-02-01T01:06:37.916Z,2.88
2023-02-01T01:07:00.479Z,2.88
2023-02-01T01:07:25.807Z,2.88
2023-02-01T01:07:59.942Z,2.88
2023-02-01T01:08:29.392Z,2.88
2023-02-01T01:09:01.609Z,2.88
2023-02-01T01:09:33.366Z,2.88
2023-02-01T01:10:05.285Z,2.88
2023-02-01T01:10:34.624Z,2.88
2023-02-01T01:11:06.345Z,2.88
2023-02-01T01:11:41.436Z,2.88
2023-02-01T01:12:05.562Z,2.88
2023-02-01T01:12:27.358Z,3.00
2023-02-01T01:13:01.447Z,3.00
2023-02-01T01:13:33.300Z,3.00
2023-02-01T01:14:05.389Z,3.00
2023-02-01T01:14:35.598Z,3.00
2023-02-01T01:15:06.412Z,3.00
2023-02-01T01:15:41.519Z,3.00
2023-02-01T01:16:04.169Z,3.00
2023-02-01T01:16:26.921Z,3.00
2023-02-01T01:17:02.849Z,3.00
2023-02-01T01:17:33.865Z,3.00
2023-02-01T01:18:05.846Z,3.00
2023-02-01T01:18:37.298Z,3.11
2023-02-01T01:19:00.137Z,3.11
2023-02-01T01:19:22.661Z,3.11
2023-02-01T01:19:59.839Z,3.11
2023-02-01T01:20:30.447Z,3.22
2023-02-01T01:21:01.885Z,3.22
2023-02-01T01:21:34.080Z,3.22
2023-02-01T01:22:05.791Z,3.22
2023-02-01T01:22:38.171Z,3.22
2023-02-01T01:23:00.899Z,3.22
2023-02-01T01:23:23.308Z,3.22
2023-02-01T01:23:57.741Z,3.11
2023-02-01T01:24:29.486Z,3.11
2023-02-01T01:25:02.229Z,3.11
2023-02-01T01:25:33.349Z,3.11
2023-02-01T01:26:07.988Z,3.11
2023-02-01T01:26:38.275Z,3.11
2023-02-01T01:27:00.370Z,3.11
2023-02-01T01:27:23.123Z,3.22
2023-02-01T01:27:57.425Z,3.22
2023-02-01T01:28:30.141Z,3.22
2023-02-01T01:29:01.418Z,3.22
2023-02-01T01:29:33.549Z,3.22
2023-02-01T01:30:05.973Z,3.11
2023-02-01T01:30:35.400Z,3.11
2023-02-01T01:31:06.667Z,3.11
2023-02-01T01:31:41.457Z,3.27
2023-02-01T01:32:03.972Z,3.27
2023-02-01T01:32:29.029Z,3.11
2023-02-01T01:33:01.777Z,3.11
2023-02-01T01:33:33.382Z,3.22
2023-02-01T01:34:06.255Z,3.22
2023-02-01T01:34:37.405Z,3.22
2023-02-01T01:35:00.118Z,3.22
2023-02-01T01:35:22.446Z,3.22
2023-02-01T01:35:57.699Z,3.22
2023-02-01T01:36:30.206Z,3.38
2023-02-01T01:37:01.220Z,3.38
2023-02-01T01:37:34.615Z,3.22
2023-02-01T01:38:05.615Z,3.22
2023-02-01T01:38:37.323Z,3.50
2023-02-01T01:39:00.246Z,3.50
2023-02-01T01:39:22.995Z,3.50
2023-02-01T01:39:58.187Z,3.50
2023-02-01T01:40:30.699Z,3.38
2023-02-01T01:41:02.247Z,3.38
2023-02-01T01:41:33.577Z,3.38
2023-02-01T01:42:05.403Z,3.38
2023-02-01T01:42:34.535Z,3.38
2023-02-01T01:43:06.718Z,3.27
2023-02-01T01:43:41.643Z,3.27
2023-02-01T01:44:04.092Z,3.27
2023-02-01T01:44:27.367Z,3.27
2023-02-01T01:45:01.754Z,3.27
2023-02-01T01:45:33.430Z,3.27
2023-02-01T01:46:05.299Z,3.27
2023-02-01T01:46:35.820Z,3.27
2023-02-01T01:47:06.282Z,3.27
2023-02-01T01:47:42.158Z,3.50
2023-02-01T01:48:04.711Z,3.50
2023-02-01T01:48:27.716Z,3.27
2023-02-01T01:49:01.317Z,3.27
2023-02-01T01:49:33.354Z,3.27
2023-02-01T01:50:05.385Z,3.27
2023-02-01T01:50:34.945Z,3.27
2023-02-01T01:51:06.709Z,3.27
2023-02-01T01:51:41.307Z,3.27
2023-02-01T01:52:04.105Z,3.27
2023-02-01T01:52:27.544Z,3.27
2023-02-01T01:53:02.435Z,3.27
2023-02-01T01:53:33.666Z,3.27
2023-02-01T01:54:05.540Z,3.27
2023-02-01T01:54:36.354Z,3.27
2023-02-01T01:55:08.387Z,3.27
2023-02-01T01:55:41.464Z,3.27
2023-02-01T01:56:04.125Z,3.27
2023-02-01T01:56:26.807Z,3.27
2023-02-01T01:57:01.665Z,3.27
2023-02-01T01:57:34.103Z,3.27
2023-02-01T01:58:05.796Z,3.27
2023-02-01T01:58:37.983Z,3.27
2023-02-01T01:59:00.194Z,3.27
2023-02-01T01:59:23.231Z,3.27
2023-02-01T01:59:57.783Z,3.27
2023-02-01T02:00:30.705Z,3.27
2023-02-01T02:01:01.379Z,3.22
2023-02-01T02:01:36.033Z,3.27
2023-02-01T02:02:05.538Z,3.27
2023-02-01T02:02:35.855Z,3.27
2023-02-01T02:03:08.239Z,3.27
2023-02-01T02:03:42.408Z,3.27
2023-02-01T02:04:29.646Z,3.27
2023-02-01T02:05:01.931Z,3.27
2023-02-01T02:05:34.188Z,3.27
2023-02-01T02:06:06.103Z,3.27
2023-02-01T02:06:37.225Z,3.22
2023-02-01T02:07:09.865Z,3.22
2023-02-01T02:07:41.255Z,3.22
2023-02-01T02:08:04.121Z,3.22
2023-02-01T02:08:26.487Z,3.22
2023-02-01T02:09:01.166Z,3.22
2023-02-01T02:09:34.953Z,3.22
2023-02-01T02:10:05.493Z,3.22
2023-02-01T02:10:37.756Z,3.22
2023-02-01T02:11:00.175Z,3.22
2023-02-01T02:11:22.498Z,3.22
2023-02-01T02:11:57.511Z,3.22
2023-02-01T02:12:29.333Z,3.27
2023-02-01T02:13:01.494Z,3.27
2023-02-01T02:13:35.187Z,3.27
2023-02-01T02:14:05.281Z,3.27
2023-02-01T02:14:35.316Z,3.22
2023-02-01T02:15:06.622Z,3.22
2023-02-01T02:15:41.292Z,3.22
2023-02-01T02:16:04.056Z,3.22
2023-02-01T02:16:26.589Z,3.22
2023-02-01T02:17:01.755Z,3.22
2023-02-01T02:17:35.773Z,3.22
2023-02-01T02:18:05.334Z,3.22
2023-02-01T02:18:35.993Z,3.11
2023-02-01T02:19:06.259Z,3.11
2023-02-01T02:19:41.488Z,3.22
2023-02-01T02:20:04.104Z,3.22
2023-02-01T02:20:26.499Z,3.22
2023-02-01T02:21:01.387Z,3.11
2023-02-01T02:21:33.280Z,3.11
2023-02-01T02:22:05.594Z,3.11
2023-02-01T02:22:36.809Z,3.22
2023-02-01T02:23:14.718Z,3.22
2023-02-01T02:23:37.175Z,3.22
2023-02-01T02:24:00.121Z,3.22
2023-02-01T02:24:29.323Z,3.22
2023-02-01T02:25:01.244Z,3.22
2023-02-01T02:25:33.279Z,3.00
2023-02-01T02:26:05.137Z,3.00
2023-02-01T02:26:34.642Z,3.00
2023-02-01T02:27:06.301Z,3.00
2023-02-01T02:27:41.425Z,3.00
2023-02-01T02:28:04.416Z,3.00
2023-02-01T02:28:26.906Z,3.00
2023-02-01T02:29:01.297Z,3.00
2023-02-01T02:29:33.450Z,3.00
2023-02-01T02:30:06.450Z,3.00
2023-02-01T02:30:38.213Z,3.00
2023-02-01T02:31:00.603Z,3.00
2023-02-01T02:31:22.977Z,3.00
2023-02-01T02:31:57.301Z,3.00
2023-02-01T02:32:29.265Z,3.00
2023-02-01T02:33:01.152Z,3.00
2023-02-01T02:33:33.252Z,3.00
2023-02-01T02:34:05.261Z,3.00
2023-02-01T02:34:34.593Z,3.00
2023-02-01T02:35:07.794Z,3.00
2023-02-01T02:35:41.532Z,3.00
2023-02-01T02:36:04.046Z,3.00
2023-02-01T02:36:26.252Z,2.77
2023-02-01T02:37:01.483Z,2.77
2023-02-01T02:37:33.175Z,2.77
2023-02-01T02:38:05.232Z,2.77
2023-02-01T02:38:34.534Z,2.77
2023-02-01T02:39:06.271Z,2.77
2023-02-01T02:39:41.288Z,2.88
2023-02-01T02:40:03.999Z,2.88
2023-02-01T02:40:26.264Z,2.88
2023-02-01T02:41:01.412Z,2.77
2023-02-01T02:41:33.379Z,2.77
2023-02-01T02:42:05.173Z,2.77
2023-02-01T02:42:34.694Z,2.77
2023-02-01T02:43:06.173Z,2.77
2023-02-01T02:43:41.346Z,3.00
2023-02-01T02:44:04.025Z,3.00
2023-02-01T02:44:26.597Z,3.00
2023-02-01T02:45:01.809Z,3.00
2023-02-01T02:45:33.370Z,2.88
2023-02-01T02:46:05.230Z,2.77
2023-02-01T02:46:34.880Z,2.77
2023-02-01T02:47:06.407Z,2.77
2023-02-01T02:47:41.344Z,2.77
2023-02-01T02:48:04.158Z,2.77
2023-02-01T02:48:26.424Z,2.77
2023-02-01T02:49:01.408Z,2.77
2023-02-01T02:49:33.182Z,2.77
2023-02-01T02:50:05.741Z,3.00
2023-02-01T02:50:37.508Z,2.77
2023-02-01T02:51:00.779Z,2.77
2023-02-01T02:51:23.660Z,2.77
2023-02-01T02:51:57.740Z,2.77
2023-02-01T02:52:29.401Z,2.77
2023-02-01T02:53:01.610Z,2.77
2023-02-01T02:53:33.345Z,2.77
2023-02-01T02:54:05.308Z,2.77
2023-02-01T02:54:34.954Z,2.77
2023-02-01T02:55:06.249Z,2.77
2023-02-01T02:55:41.821Z,2.77
2023-02-01T02:56:04.237Z,2.77
2023-02-01T02:56:26.509Z,2.77
2023-02-01T02:57:01.223Z,2.77
2023-02-01T02:57:33.282Z,2.77
2023-02-01T02:58:05.332Z,2.77
2023-02-01T02:58:36.172Z,2.77
2023-02-01T02:59:07.224Z,2.77
2023-02-01T02:59:42.661Z,2.77
2023-02-01T03:00:10.518Z,2.77
2023-02-01T03:00:27.210Z,2.77
2023-02-01T03:01:01.686Z,2.77
2023-02-01T03:01:33.455Z,2.77
2023-02-01T03:02:05.763Z,2.77
2023-02-01T03:02:40.187Z,2.77
2023-02-01T03:03:02.820Z,2.77
2023-02-01T03:03:25.608Z,2.77
2023-02-01T03:04:31.448Z,2.77
2023-02-01T03:05:01.699Z,2.77
2023-02-01T03:05:33.696Z,2.77
2023-02-01T03:06:05.664Z,2.77
2023-02-01T03:06:35.956Z,2.77
2023-02-01T03:07:06.339Z,2.77
2023-02-01T03:07:43.985Z,2.77
2023-02-01T03:08:04.763Z,2.77
2023-02-01T03:08:27.680Z,2.77
2023-02-01T03:09:01.622Z,2.77
2023-02-01T03:09:33.485Z,2.77
2023-02-01T03:10:05.846Z,2.77
2023-02-01T03:10:37.715Z,2.61
2023-02-01T03:11:00.522Z,2.61
2023-02-01T03:11:27.408Z,2.61
2023-02-01T03:11:57.971Z,2.72
2023-02-01T03:12:29.381Z,2.72
2023-02-01T03:13:01.378Z,2.72
2023-02-01T03:13:33.493Z,2.72
2023-02-01T03:14:05.167Z,2.77
2023-02-01T03:14:34.757Z,2.77
2023-02-01T03:15:06.469Z,2.77
2023-02-01T03:15:41.671Z,2.77
2023-02-01T03:16:04.252Z,2.77
2023-02-01T03:16:26.618Z,2.77
2023-02-01T03:17:02.828Z,2.61
2023-02-01T03:17:33.380Z,2.61
2023-02-01T03:18:05.326Z,2.72
2023-02-01T03:18:34.719Z,2.72
2023-02-01T03:19:06.565Z,2.72
2023-02-01T03:19:41.379Z,2.72
2023-02-01T03:20:04.005Z,2.77
2023-02-01T03:20:26.503Z,2.72
2023-02-01T03:21:01.393Z,2.72
2023-02-01T03:21:33.715Z,2.72
2023-02-01T03:22:05.572Z,2.72
2023-02-01T03:22:37.456Z,2.72
2023-02-01T03:23:00.295Z,2.77
2023-02-01T03:23:22.431Z,2.77
2023-02-01T03:23:57.769Z,2.77
2023-02-01T03:24:29.379Z,2.72
2023-02-01T03:25:01.712Z,2.72
2023-02-01T03:25:33.373Z,2.72
2023-02-01T03:26:05.489Z,2.77
2023-02-01T03:26:34.826Z,2.77
2023-02-01T03:27:06.354Z,2.77
2023-02-01T03:27:41.640Z,2.88
2023-02-01T03:28:04.006Z,2.88
2023-02-01T03:28:26.872Z,2.88
2023-02-01T03:29:01.728Z,2.77
2023-02-01T03:29:33.324Z,2.72
2023-02-01T03:30:05.946Z,2.72
2023-02-01T03:30:37.499Z,2.72
2023-02-01T03:31:00.167Z,2.72
2023-02-01T03:31:22.617Z,2.77
2023-02-01T03:31:57.506Z,2.77
2023-02-01T03:32:29.419Z,2.77
2023-02-01T03:33:01.502Z,2.77
2023-02-01T03:33:33.206Z,2.77
2023-02-01T03:34:05.428Z,2.77
2023-02-01T03:34:34.699Z,2.77
2023-02-01T03:35:06.543Z,2.77
2023-02-01T03:35:41.191Z,2.77
2023-02-01T03:36:03.832Z,2.77
2023-02-01T03:36:26.352Z,2.77
2023-02-01T03:37:01.323Z,2.77
2023-02-01T03:37:35.022Z,2.77
2023-02-01T03:38:05.781Z,2.77
2023-02-01T03:38:37.302Z,2.77
2023-02-01T03:39:00.122Z,2.88
2023-02-01T03:39:23.202Z,2.88
2023-02-01T03:39:57.853Z,2.88
2023-02-01T03:40:31.963Z,2.77
2023-02-01T03:41:01.511Z,2.72
2023-02-01T03:41:33.652Z,2.72
2023-02-01T03:42:05.368Z,2.72
2023-02-01T03:42:34.685Z,2.77
2023-02-01T03:43:06.287Z,2.77
2023-02-01T03:43:41.786Z,2.77
2023-02-01T03:44:04.346Z,2.77
2023-02-01T03:44:30.165Z,2.77
2023-02-01T03:45:01.924Z,2.77
2023-02-01T03:45:34.217Z,2.77
2023-02-01T03:46:05.414Z,2.77
2023-02-01T03:46:35.629Z,2.88
2023-02-01T03:47:06.368Z,2.88
2023-02-01T03:47:42.115Z,2.77
2023-02-01T03:48:04.566Z,2.77
2023-02-01T03:48:27.090Z,2.77
2023-02-01T03:49:01.864Z,2.77
2023-02-01T03:49:33.320Z,2.77
2023-02-01T03:50:05.594Z,2.77
2023-02-01T03:50:37.295Z,2.77
2023-02-01T03:51:00.012Z,2.77
2023-02-01T03:51:22.923Z,2.77
2023-02-01T03:51:57.185Z,2.77
2023-02-01T03:52:29.491Z,2.88
2023-02-01T03:53:01.939Z,2.88
2023-02-01T03:53:34.170Z,2.77
2023-02-01T03:54:05.587Z,2.72
2023-02-01T03:54:38.265Z,2.72
2023-02-01T03:55:01.002Z,2.72
2023-02-01T03:55:23.233Z,2.77
2023-02-01T03:55:57.522Z,2.77
2023-02-01T03:56:29.595Z,2.77
2023-02-01T03:57:02.188Z,2.77
2023-02-01T03:57:33.348Z,2.72
2023-02-01T03:58:05.778Z,2.77
2023-02-01T03:58:37.628Z,2.72
2023-02-01T03:59:00.523Z,2.72
2023-02-01T03:59:24.365Z,2.72
2023-02-01T03:59:57.527Z,2.77
2023-02-01T04:00:30.058Z,2.77
2023-02-01T04:01:01.854Z,2.88
2023-02-01T04:01:34.368Z,2.88
2023-02-01T04:02:05.296Z,2.77
2023-02-01T04:02:35.551Z,2.77
2023-02-01T04:03:07.783Z,2.77
2023-02-01T04:03:42.544Z,2.77
2023-02-01T04:04:07.166Z,2.77
2023-02-01T04:04:27.445Z,2.77
2023-02-01T04:05:01.726Z,2.77
2023-02-01T04:05:35.264Z,2.77
2023-02-01T04:06:05.500Z,2.77
2023-02-01T04:06:34.822Z,2.77
2023-02-01T04:07:08.589Z,2.77
2023-02-01T04:07:43.926Z,2.77
2023-02-01T04:08:04.036Z,2.77
2023-02-01T04:08:27.013Z,2.77
2023-02-01T04:09:01.756Z,2.77
2023-02-01T04:09:33.325Z,2.77
2023-02-01T04:10:05.496Z,2.88
2023-02-01T04:10:35.777Z,2.88
2023-02-01T04:11:06.294Z,2.88
2023-02-01T04:11:42.828Z,2.88
2023-02-01T04:12:05.202Z,2.88
2023-02-01T04:12:27.618Z,2.88
2023-02-01T04:13:02.270Z,2.88
2023-02-01T04:13:33.521Z,2.88
2023-02-01T04:14:05.667Z,2.88
2023-02-01T04:14:37.239Z,2.88
2023-02-01T04:15:06.562Z,2.88
2023-02-01T04:15:41.191Z,2.88
2023-02-01T04:16:03.809Z,2.88
2023-02-01T04:16:45.348Z,2.88
2023-02-01T04:17:08.096Z,2.88
2023-02-01T04:17:31.249Z,2.88
2023-02-01T04:18:05.438Z,2.88
2023-02-01T04:18:35.487Z,2.88
2023-02-01T04:19:06.325Z,2.88
2023-02-01T04:19:41.359Z,2.88
2023-02-01T04:20:04.008Z,2.88
2023-02-01T04:20:26.539Z,2.88
2023-02-01T04:21:01.615Z,2.77
2023-02-01T04:21:33.525Z,2.88
2023-02-01T04:22:05.182Z,2.88
2023-02-01T04:22:35.001Z,2.88
2023-02-01T04:23:06.636Z,2.88
2023-02-01T04:23:41.351Z,2.88
2023-02-01T04:24:03.961Z,2.88
2023-02-01T04:24:26.469Z,2.88
2023-02-01T04:25:01.381Z,2.88
2023-02-01T04:25:33.595Z,2.88
2023-02-01T04:26:05.310Z,2.77
2023-02-01T04:26:35.077Z,2.77
2023-02-01T04:27:06.343Z,2.77
2023-02-01T04:27:42.236Z,2.77
2023-02-01T04:28:04.793Z,2.77
2023-02-01T04:28:30.952Z,2.88
2023-02-01T04:29:01.974Z,2.88
2023-02-01T04:29:35.749Z,2.88
2023-02-01T04:30:05.887Z,2.88
2023-02-01T04:30:35.144Z,2.88
2023-02-01T04:31:07.560Z,2.88
2023-02-01T04:31:41.436Z,2.88
2023-02-01T04:32:03.922Z,2.88
2023-02-01T04:32:26.713Z,2.88
2023-02-01T04:33:01.663Z,2.88
2023-02-01T04:33:33.535Z,2.77
2023-02-01T04:34:05.212Z,2.88
2023-02-01T04:34:34.989Z,2.77
2023-02-01T04:35:06.913Z,2.77
2023-02-01T04:35:41.237Z,2.88
2023-02-01T04:36:03.972Z,2.88
2023-02-01T04:36:26.290Z,2.88
2023-02-01T04:37:01.337Z,2.88
2023-02-01T04:37:33.207Z,2.88
2023-02-01T04:38:05.546Z,2.77
2023-02-01T04:38:34.971Z,2.88
2023-02-01T04:39:07.545Z,2.88
2023-02-01T04:39:41.216Z,2.88
2023-02-01T04:40:04.000Z,2.88
2023-02-01T04:40:26.366Z,2.88
2023-02-01T04:41:01.709Z,2.88
2023-02-01T04:41:33.956Z,2.88
2023-02-01T04:42:05.363Z,2.88
2023-02-01T04:42:34.989Z,2.88
2023-02-01T04:43:06.336Z,2.88
2023-02-01T04:43:41.608Z,2.77
2023-02-01T04:44:04.000Z,2.88
2023-02-01T04:44:26.865Z,3.00
2023-02-01T04:45:02.361Z,3.00
2023-02-01T04:45:33.729Z,3.00
2023-02-01T04:46:07.762Z,3.00
2023-02-01T04:46:37.801Z,2.88
2023-02-01T04:47:00.463Z,2.88
2023-02-01T04:47:23.406Z,2.88
2023-02-01T04:47:58.095Z,2.88
2023-02-01T04:48:29.444Z,2.88
2023-02-01T04:49:01.230Z,2.88
2023-02-01T04:49:33.386Z,2.88
2023-02-01T04:50:05.235Z,2.88
2023-02-01T04:50:34.874Z,2.88
2023-02-01T04:51:06.813Z,2.88
2023-02-01T04:51:41.341Z,3.11
2023-02-01T04:52:04.100Z,2.88
2023-02-01T04:52:26.545Z,2.88
2023-02-01T04:53:04.404Z,2.88
2023-02-01T04:53:33.274Z,2.88
2023-02-01T04:54:05.475Z,2.88
2023-02-01T04:54:34.911Z,2.88
2023-02-01T04:55:07.500Z,2.88
2023-02-01T04:55:41.429Z,2.88
2023-02-01T04:56:04.310Z,3.00
2023-02-01T04:56:26.995Z,2.88
2023-02-01T04:57:01.325Z,2.88
2023-02-01T04:57:33.900Z,2.88
2023-02-01T04:58:05.657Z,2.88
2023-02-01T04:58:38.012Z,2.88
2023-02-01T04:59:01.314Z,2.88
2023-02-01T04:59:23.056Z,2.88
2023-02-01T04:59:58.262Z,2.88
2023-02-01T05:00:29.682Z,2.88
2023-02-01T05:01:02.075Z,2.88
2023-02-01T05:01:33.402Z,2.88
2023-02-01T05:02:05.661Z,2.88
2023-02-01T05:02:38.187Z,2.88
2023-02-01T05:03:11.182Z,3.11
2023-02-01T05:03:41.661Z,3.11
2023-02-01T05:04:04.506Z,3.11
2023-02-01T05:04:27.984Z,3.11
2023-02-01T05:05:01.601Z,3.00
2023-02-01T05:05:33.767Z,2.77
2023-02-01T05:06:05.485Z,2.77
2023-02-01T05:06:34.701Z,2.77
2023-02-01T05:07:06.396Z,2.88
2023-02-01T05:07:41.291Z,2.88
2023-02-01T05:08:04.182Z,2.88
2023-02-01T05:08:26.544Z,2.88
2023-02-01T05:09:01.331Z,3.11
2023-02-01T05:09:34.720Z,3.11
2023-02-01T05:10:05.341Z,3.11
2023-02-01T05:10:34.696Z,3.11
2023-02-01T05:11:06.394Z,3.11
2023-02-01T05:11:41.169Z,3.11
2023-02-01T05:12:05.591Z,3.11
2023-02-01T05:12:26.407Z,3.11
2023-02-01T05:13:01.546Z,3.11
2023-02-01T05:13:34.678Z,2.88
2023-02-01T05:14:05.311Z,2.88
2023-02-01T05:14:34.727Z,3.11
2023-02-01T05:15:06.569Z,3.11
2023-02-01T05:15:41.176Z,3.11
2023-02-01T05:16:03.991Z,3.11
2023-02-01T05:16:26.179Z,3.11
2023-02-01T05:17:02.809Z,3.11
2023-02-01T05:17:33.174Z,3.00
2023-02-01T05:18:05.179Z,3.00
2023-02-01T05:18:37.252Z,3.00
2023-02-01T05:19:09.371Z,3.00
2023-02-01T05:19:41.251Z,3.00
2023-02-01T05:20:04.099Z,3.00
2023-02-01T05:20:26.299Z,3.11
2023-02-01T05:21:01.223Z,3.11
2023-02-01T05:21:33.258Z,3.00
2023-02-01T05:22:05.119Z,3.00
2023-02-01T05:22:34.888Z,3.00
2023-02-01T05:23:06.357Z,3.00
2023-02-01T05:23:41.293Z,3.00
2023-02-01T05:24:04.857Z,3.00
2023-02-01T05:24:26.609Z,3.00
2023-02-01T05:25:02.013Z,3.22
2023-02-01T05:25:33.207Z,3.00
2023-02-01T05:26:05.258Z,3.00
2023-02-01T05:26:37.264Z,3.00
2023-02-01T05:27:02.187Z,3.00
2023-02-01T05:27:25.281Z,3.00
2023-02-01T05:27:57.213Z,3.00
2023-02-01T05:28:29.254Z,3.22
2023-02-01T05:29:02.311Z,3.00
2023-02-01T05:29:33.213Z,3.11
2023-02-01T05:30:07.766Z,3.11
2023-02-01T05:30:37.356Z,2.88
2023-02-01T05:31:00.069Z,2.88
2023-02-01T05:31:22.456Z,2.88
2023-02-01T05:32:00.948Z,2.88
2023-02-01T05:32:29.229Z,3.11
2023-02-01T05:33:03.267Z,2.88
2023-02-01T05:33:33.159Z,2.88
2023-02-01T05:34:05.178Z,3.00
2023-02-01T05:34:37.072Z,3.00
2023-02-01T05:35:00.200Z,3.22
2023-02-01T05:35:22.542Z,3.00
2023-02-01T05:35:57.120Z,3.22
2023-02-01T05:36:29.288Z,3.11
2023-02-01T05:37:01.068Z,2.88
2023-02-01T05:37:33.196Z,2.88
2023-02-01T05:38:05.160Z,2.88
2023-02-01T05:38:34.586Z,2.88
2023-02-01T05:39:06.335Z,2.88
2023-02-01T05:39:41.250Z,3.11
2023-02-01T05:40:05.019Z,3.11
2023-02-01T05:40:26.571Z,3.11
2023-02-01T05:41:01.169Z,3.11
2023-02-01T05:41:33.179Z,3.11
2023-02-01T05:42:05.320Z,3.11
2023-02-01T05:42:34.702Z,3.11
2023-02-01T05:43:06.207Z,3.11
2023-02-01T05:43:41.259Z,3.11
2023-02-01T05:44:04.621Z,3.11
2023-02-01T05:44:28.862Z,3.11
2023-02-01T05:45:02.019Z,3.11
2023-02-01T05:45:33.308Z,3.11
2023-02-01T05:46:05.386Z,3.11
2023-02-01T05:46:37.233Z,3.11
2023-02-01T05:47:00.169Z,3.11
2023-02-01T05:47:22.482Z,3.11
2023-02-01T05:47:57.188Z,3.11
2023-02-01T05:48:29.205Z,3.11
2023-02-01T05:49:01.390Z,3.11
2023-02-01T05:49:33.173Z,3.11
2023-02-01T05:50:05.683Z,3.00
2023-02-01T05:50:37.280Z,3.00
2023-02-01T05:51:06.431Z,3.00
2023-02-01T05:51:41.286Z,3.00
2023-02-01T05:52:05.883Z,3.00
2023-02-01T05:52:26.588Z,3.00
2023-02-01T05:53:01.313Z,3.11
2023-02-01T05:53:33.255Z,3.11
2023-02-01T05:54:06.231Z,3.11
2023-02-01T05:54:38.121Z,3.11
2023-02-01T05:55:06.596Z,3.11
2023-02-01T05:55:41.301Z,3.11
2023-02-01T05:56:06.564Z,3.11
2023-02-01T05:56:26.341Z,3.11
2023-02-01T05:57:01.344Z,2.88
2023-02-01T05:57:33.387Z,2.88
2023-02-01T05:58:06.958Z,3.11
2023-02-01T05:58:37.167Z,3.11
2023-02-01T05:59:07.263Z,3.11
2023-02-01T05:59:41.232Z,3.11
2023-02-01T06:00:08.173Z,3.11
2023-02-01T06:01:02.807Z,3.11
2023-02-01T06:01:27.795Z,3.11
2023-02-01T06:02:09.237Z,3.11
2023-02-01T06:02:34.824Z,3.11
2023-02-01T06:03:14.647Z,3.11
2023-02-01T06:03:37.414Z,3.11
2023-02-01T06:04:05.885Z,3.11
2023-02-01T06:04:23.043Z,3.11
2023-02-01T06:05:01.874Z,3.11
2023-02-01T06:05:34.540Z,3.00
2023-02-01T06:06:05.394Z,3.00
2023-02-01T06:06:35.516Z,3.00
2023-02-01T06:07:08.462Z,3.00
2023-02-01T06:07:41.401Z,3.00
2023-02-01T06:08:03.938Z,3.00
2023-02-01T06:08:26.245Z,3.11
2023-02-01T06:09:01.390Z,3.11
2023-02-01T06:09:34.392Z,3.11
2023-02-01T06:10:08.868Z,3.11
2023-02-01T06:10:37.176Z,2.88
2023-02-01T06:11:06.653Z,2.88
2023-02-01T06:11:47.991Z,2.88
2023-02-01T06:12:09.586Z,2.88
2023-02-01T06:12:27.183Z,2.88
2023-02-01T06:13:01.366Z,3.00
2023-02-01T06:13:34.540Z,3.00
2023-02-01T06:14:06.376Z,3.00
2023-02-01T06:14:42.457Z,3.22
2023-02-01T06:15:03.923Z,3.22
2023-02-01T06:15:41.412Z,3.22
2023-02-01T06:16:03.851Z,3.22
2023-02-01T06:16:26.611Z,3.22
2023-02-01T06:17:04.754Z,3.00
2023-02-01T06:17:34.180Z,3.00
2023-02-01T06:18:06.582Z,3.22
2023-02-01T06:18:37.247Z,3.22
2023-02-01T06:19:06.729Z,3.22
2023-02-01T06:19:41.421Z,3.22
2023-02-01T06:20:06.000Z,3.22
2023-02-01T06:20:26.674Z,3.11
2023-02-01T06:21:01.239Z,3.11
2023-02-01T06:21:33.269Z,3.11
2023-02-01T06:22:05.092Z,3.22
2023-02-01T06:22:35.411Z,3.22
2023-02-01T06:23:06.857Z,3.22
2023-02-01T06:23:42.631Z,3.22
2023-02-01T06:24:05.693Z,3.22
2023-02-01T06:24:28.624Z,3.22
2023-02-01T06:25:02.039Z,3.22
2023-02-01T06:25:33.381Z,3.00
2023-02-01T06:26:05.326Z,3.00
2023-02-01T06:26:34.803Z,3.00
2023-02-01T06:27:06.491Z,3.00
2023-02-01T06:27:41.730Z,3.00
2023-02-01T06:28:04.194Z,3.00
2023-02-01T06:28:27.027Z,3.00
2023-02-01T06:29:01.503Z,3.00
2023-02-01T06:29:33.526Z,3.00
2023-02-01T06:30:05.820Z,3.00
2023-02-01T06:30:35.017Z,3.00
2023-02-01T06:31:06.391Z,3.22
2023-02-01T06:31:41.492Z,3.22
2023-02-01T06:32:03.891Z,3.22
2023-02-01T06:32:26.328Z,3.22
2023-02-01T06:33:01.485Z,3.00
2023-02-01T06:33:33.864Z,3.00
2023-02-01T06:34:06.359Z,3.00
2023-02-01T06:34:37.454Z,3.00
2023-02-01T06:35:00.216Z,3.00
2023-02-01T06:35:22.738Z,3.00
2023-02-01T06:35:57.236Z,3.22
2023-02-01T06:36:29.586Z,3.22
2023-02-01T06:37:01.210Z,3.22
2023-02-01T06:37:33.219Z,3.22
2023-02-01T06:38:05.241Z,3.00
2023-02-01T06:38:35.422Z,3.00
2023-02-01T06:39:07.516Z,3.00
2023-02-01T06:39:41.461Z,3.00
2023-02-01T06:40:04.152Z,3.00
2023-02-01T06:40:45.429Z,3.00
2023-02-01T06:41:08.475Z,3.00